< < Back
Terminal Aerodrome Forecast


Current Version              Previous Versions:   1  2  3  4  5  6  7  8  9  

Terminal Aerodrome Forecast

796
FTUS42 KFFC 291120
TAFPDK
TAF
KPDK 291120Z 2912/3012 00000KT P6SM SCT009 BKN020
     FM291400 12005KT P6SM BKN015 BKN035 OVC150
     FM291800 15005KT P6SM -SHRA SCT025 BKN040 OVC150
     FM300100 VRB03KT P6SM VCSH SCT050 OVC090
     FM300900 VRB03KT P6SM -SHRA SCT005 OVC040=

Latest METAR

174
SAUS70 KWBC 300100 RRJ
MTRPDK
METAR KPDK 300053Z 10003KT 10SM FEW090 BKN120 24/18 A3015 RMK AO2 SLP194
T02440183


USA.gov is the U.S. government's official web portal to all federal, state and local government web resources and services.